createdAt,value
2022-10-07T00:00:55.675Z,2.88
2022-10-07T00:03:24.288Z,2.47
2022-10-07T00:06:27.146Z,2.75
2022-10-07T00:08:54.739Z,2.63
2022-10-07T00:11:27.146Z,2.83
2022-10-07T00:14:02.898Z,2.88
2022-10-07T00:16:32.424Z,2.95
2022-10-07T00:19:02.442Z,2.70
2022-10-07T00:21:31.454Z,3.05
2022-10-07T00:23:58.496Z,2.90
2022-10-07T00:26:28.273Z,2.60
2022-10-07T00:28:55.825Z,3.58
2022-10-07T00:31:27.876Z,3.13
2022-10-07T00:33:56.561Z,2.92
2022-10-07T00:36:25.788Z,2.70
2022-10-07T00:38:53.514Z,2.97
2022-10-07T00:41:30.492Z,2.65
2022-10-07T00:43:58.626Z,2.10
2022-10-07T00:46:25.507Z,2.60
2022-10-07T00:48:52.888Z,2.53
2022-10-07T00:51:19.857Z,2.58
2022-10-07T00:53:51.011Z,3.03
2022-10-07T00:56:18.192Z,2.88
2022-10-07T00:58:48.281Z,2.35
2022-10-07T01:01:15.934Z,2.58
2022-10-07T01:03:43.285Z,2.60
2022-10-07T01:06:10.470Z,2.28
2022-10-07T01:08:37.356Z,2.38
2022-10-07T01:11:26.072Z,2.10
2022-10-07T01:14:02.845Z,2.40
2022-10-07T01:16:38.683Z,2.85
2022-10-07T01:19:11.434Z,2.35
2022-10-07T01:21:44.030Z,2.63
2022-10-07T01:24:29.162Z,2.65
2022-10-07T01:27:04.735Z,2.28
2022-10-07T01:29:47.758Z,2.50
2022-10-07T01:32:38.214Z,2.78
2022-10-07T01:35:10.055Z,2.10
2022-10-07T01:37:42.695Z,3.00
2022-10-07T01:40:15.699Z,3.00
2022-10-07T01:42:44.511Z,2.90
2022-10-07T01:45:14.292Z,2.90
2022-10-07T01:47:41.192Z,2.50
2022-10-07T01:50:12.961Z,2.53
2022-10-07T01:52:48.553Z,2.25
2022-10-07T01:55:35.307Z,2.70
2022-10-07T01:58:16.283Z,2.30
2022-10-07T02:00:48.319Z,2.22
2022-10-07T02:03:35.000Z,2.40
2022-10-07T02:06:26.769Z,2.53
2022-10-07T02:08:55.727Z,2.17
2022-10-07T02:11:28.927Z,2.70
2022-10-07T02:14:18.673Z,2.10
2022-10-07T02:16:55.192Z,1.85
2022-10-07T02:19:28.500Z,2.22
2022-10-07T02:21:57.438Z,2.10
2022-10-07T02:24:27.513Z,2.22
2022-10-07T02:26:55.778Z,2.25
2022-10-07T02:29:24.320Z,2.20
2022-10-07T02:31:52.712Z,2.15
2022-10-07T02:34:23.066Z,2.17
2022-10-07T02:36:54.808Z,2.00
2022-10-07T02:39:21.675Z,1.77
2022-10-07T02:42:09.724Z,2.53
2022-10-07T02:44:56.887Z,2.40
2022-10-07T02:47:45.492Z,2.13
2022-10-07T02:50:17.408Z,2.40
2022-10-07T02:52:45.525Z,2.03
2022-10-07T02:55:17.406Z,1.88
2022-10-07T02:57:50.215Z,2.00
2022-10-07T03:00:18.336Z,1.98
2022-10-07T03:02:57.053Z,2.20
2022-10-07T03:05:26.003Z,2.00
2022-10-07T03:07:59.232Z,2.58
2022-10-07T03:10:31.811Z,2.05
2022-10-07T03:12:58.788Z,2.47
2022-10-07T03:15:25.960Z,2.60
2022-10-07T03:17:52.945Z,2.20
2022-10-07T03:20:19.676Z,2.10
2022-10-07T03:22:46.445Z,2.10
2022-10-07T03:25:14.036Z,2.25
2022-10-07T03:27:42.792Z,1.92
2022-10-07T03:30:11.354Z,2.25
2022-10-07T03:32:41.809Z,2.53
2022-10-07T03:35:09.101Z,2.10
2022-10-07T03:37:36.449Z,2.10
2022-10-07T03:40:03.679Z,2.33
2022-10-07T03:42:30.488Z,2.17
2022-10-07T03:44:57.257Z,1.92
2022-10-07T03:47:24.058Z,2.40
2022-10-07T03:49:50.813Z,2.55
2022-10-07T03:52:17.524Z,2.35
2022-10-07T03:54:44.752Z,1.95
2022-10-07T03:57:31.799Z,2.20
2022-10-07T03:59:58.839Z,1.67
2022-10-07T04:02:25.640Z,1.98
2022-10-07T04:04:55.310Z,2.20
2022-10-07T04:07:22.659Z,2.33
2022-10-07T04:09:49.528Z,2.47
2022-10-07T04:12:16.563Z,2.30
2022-10-07T04:14:43.295Z,2.30
2022-10-07T04:17:10.065Z,2.08
2022-10-07T04:19:37.240Z,1.75
2022-10-07T04:22:08.828Z,2.10
2022-10-07T04:24:36.001Z,1.85
2022-10-07T04:27:06.083Z,2.30
2022-10-07T04:29:36.763Z,2.53
2022-10-07T04:34:32.527Z,2.80
2022-10-07T04:37:01.062Z,2.22
2022-10-07T04:39:49.103Z,2.00
2022-10-07T04:42:33.530Z,1.98
2022-10-07T04:45:00.331Z,2.38
2022-10-07T04:47:27.087Z,2.20
2022-10-07T04:49:54.425Z,2.20
2022-10-07T04:52:21.238Z,2.22
2022-10-07T04:54:48.009Z,2.50
2022-10-07T04:57:14.819Z,2.63
2022-10-07T04:59:43.066Z,2.47
2022-10-07T05:02:10.298Z,2.58
2022-10-07T05:04:37.208Z,2.15
2022-10-07T05:07:04.413Z,2.65
2022-10-07T05:09:31.309Z,2.70
2022-10-07T05:11:58.096Z,2.42
2022-10-07T05:14:24.923Z,2.65
2022-10-07T05:16:51.919Z,2.80
2022-10-07T05:19:20.092Z,3.05
2022-10-07T05:21:46.953Z,2.50
2022-10-07T05:24:13.733Z,2.60
2022-10-07T05:26:41.369Z,3.13
2022-10-07T05:29:08.874Z,2.10
2022-10-07T05:31:35.746Z,2.45
2022-10-07T05:34:02.969Z,2.28
2022-10-07T05:36:29.898Z,2.72
2022-10-07T05:38:59.985Z,2.88
2022-10-07T05:41:28.375Z,2.67
2022-10-07T05:43:55.358Z,3.08
2022-10-07T05:46:23.687Z,3.08
2022-10-07T05:48:52.511Z,3.00
2022-10-07T05:51:21.231Z,3.33
2022-10-07T05:53:48.285Z,3.75
2022-10-07T05:56:22.671Z,2.97
2022-10-07T05:58:50.632Z,3.60
2022-10-07T06:01:19.742Z,3.20
2022-10-07T06:03:55.075Z,3.92
2022-10-07T06:06:21.995Z,4.10
2022-10-07T06:08:49.994Z,4.60
2022-10-07T06:11:36.302Z,3.97
2022-10-07T06:14:03.893Z,3.97
2022-10-07T06:16:31.104Z,4.47
2022-10-07T06:18:58.038Z,3.25
2022-10-07T06:21:28.214Z,3.80
2022-10-07T06:23:56.811Z,4.68
2022-10-07T06:26:24.284Z,3.78
2022-10-07T06:28:51.133Z,4.68
2022-10-07T06:31:25.179Z,4.50
2022-10-07T06:33:52.539Z,4.72
2022-10-07T06:36:19.636Z,4.80
2022-10-07T06:38:47.887Z,5.53
2022-10-07T06:41:15.892Z,4.85
2022-10-07T06:43:43.236Z,5.18
2022-10-07T06:46:14.874Z,5.03
2022-10-07T06:48:42.981Z,5.85
2022-10-07T06:51:14.304Z,5.85
2022-10-07T06:53:44.283Z,5.70
2022-10-07T06:56:13.732Z,5.05
2022-10-07T06:58:40.837Z,5.47
2022-10-07T07:01:07.667Z,6.15
2022-10-07T07:03:34.503Z,5.47
2022-10-07T07:06:02.128Z,5.45
2022-10-07T07:08:31.923Z,5.50
2022-10-07T07:11:27.551Z,5.28
2022-10-07T07:13:54.822Z,5.65
2022-10-07T07:16:22.192Z,5.60
2022-10-07T07:18:56.821Z,6.18
2022-10-07T07:21:24.171Z,5.40
2022-10-07T07:23:51.327Z,5.90
2022-10-07T07:26:19.550Z,5.97
2022-10-07T07:28:58.801Z,6.03
2022-10-07T07:31:27.781Z,6.43
2022-10-07T07:33:55.438Z,6.55
2022-10-07T07:36:25.016Z,6.35
2022-10-07T07:38:53.115Z,6.20
2022-10-07T07:41:29.417Z,6.72
2022-10-07T07:43:58.659Z,5.95
2022-10-07T07:46:29.516Z,6.00
2022-10-07T07:48:56.315Z,6.40
2022-10-07T07:51:23.161Z,6.63
2022-10-07T07:53:50.311Z,7.07
2022-10-07T07:56:18.302Z,6.57
2022-10-07T07:58:45.383Z,6.97
2022-10-07T08:01:15.745Z,7.07
2022-10-07T08:03:44.545Z,6.43
2022-10-07T08:06:12.695Z,7.32
2022-10-07T08:08:43.127Z,7.25
2022-10-07T08:11:12.536Z,6.93
2022-10-07T08:13:41.292Z,7.57
2022-10-07T08:16:13.378Z,6.50
2022-10-07T08:18:46.073Z,7.07
2022-10-07T08:21:13.815Z,6.40
2022-10-07T08:23:41.430Z,7.53
2022-10-07T08:26:09.967Z,6.28
2022-10-07T08:28:37.708Z,6.97
2022-10-07T08:31:07.100Z,5.95
2022-10-07T08:33:36.587Z,6.15
2022-10-07T08:36:05.668Z,6.68
2022-10-07T08:38:34.674Z,6.55
2022-10-07T08:41:16.198Z,6.50
2022-10-07T08:43:49.271Z,6.63
2022-10-07T08:49:04.906Z,6.05
2022-10-07T08:51:40.770Z,6.70
2022-10-07T08:54:13.852Z,6.22
2022-10-07T08:59:22.764Z,5.57
2022-10-07T09:02:13.994Z,5.53
2022-10-07T09:04:41.330Z,6.28
2022-10-07T09:07:14.705Z,6.43
2022-10-07T09:09:53.865Z,5.80
2022-10-07T09:12:50.303Z,5.68
2022-10-07T09:15:34.830Z,5.90
2022-10-07T09:18:27.706Z,4.47
2022-10-07T09:20:56.445Z,5.88
2022-10-07T09:23:28.018Z,5.43
2022-10-07T09:25:55.194Z,4.40
2022-10-07T09:28:27.486Z,4.90
2022-10-07T09:30:54.745Z,5.05
2022-10-07T09:33:23.657Z,4.50
2022-10-07T09:35:57.739Z,4.75
2022-10-07T09:38:36.089Z,4.30
2022-10-07T09:41:17.399Z,4.35
2022-10-07T09:43:49.905Z,4.00
2022-10-07T09:46:41.327Z,5.35
2022-10-07T09:49:29.272Z,4.50
2022-10-07T09:52:00.444Z,4.28
2022-10-07T09:54:28.533Z,3.83
2022-10-07T09:56:57.599Z,4.22
2022-10-07T09:59:24.453Z,4.88
2022-10-07T10:01:59.137Z,4.25
2022-10-07T10:04:35.560Z,3.83
2022-10-07T10:07:17.671Z,4.68
2022-10-07T10:09:53.063Z,4.05
2022-10-07T10:12:22.106Z,4.43
2022-10-07T10:15:00.057Z,4.07
2022-10-07T10:17:34.565Z,3.92
2022-10-07T10:20:20.151Z,4.38
2022-10-07T10:22:47.450Z,3.55
2022-10-07T10:25:35.828Z,3.42
2022-10-07T10:28:13.982Z,3.58
2022-10-07T10:30:53.472Z,3.13
2022-10-07T10:33:46.649Z,3.50
2022-10-07T10:39:00.204Z,3.55
2022-10-07T10:41:46.420Z,3.35
2022-10-07T10:44:32.297Z,3.17
2022-10-07T10:47:19.433Z,2.72
2022-10-07T10:50:06.124Z,2.65
2022-10-07T10:52:39.148Z,2.47
2022-10-07T10:55:34.922Z,2.60
2022-10-07T10:58:25.802Z,2.80
2022-10-07T11:01:27.940Z,2.80
2022-10-07T11:04:16.097Z,2.90
2022-10-07T11:06:48.639Z,2.60
2022-10-07T11:09:30.782Z,2.90
2022-10-07T11:12:03.243Z,2.73
2022-10-07T11:14:31.755Z,2.47
2022-10-07T11:17:05.021Z,2.78
2022-10-07T11:19:43.399Z,2.10
2022-10-07T11:22:17.735Z,2.45
2022-10-07T11:24:57.364Z,2.33
2022-10-07T11:27:32.612Z,2.60
2022-10-07T11:30:08.386Z,2.58
2022-10-07T11:32:42.935Z,3.13
2022-10-07T11:35:28.368Z,1.77
2022-10-07T11:38:04.896Z,2.83
2022-10-07T11:40:34.604Z,2.50
2022-10-07T11:43:20.306Z,2.03
2022-10-07T11:45:52.833Z,2.00
2022-10-07T15:38:43.393Z,2.35
2022-10-07T20:07:31.491Z,3.60
2022-10-07T20:09:58.875Z,3.17
2022-10-07T20:12:25.636Z,3.20
2022-10-07T20:14:52.467Z,3.15
2022-10-07T20:17:20.077Z,3.42
2022-10-07T20:22:12.705Z,5.10
2022-10-07T20:24:39.543Z,7.93
2022-10-07T20:27:06.433Z,7.90
2022-10-07T20:29:53.173Z,6.82
2022-10-07T20:32:19.918Z,7.15
2022-10-07T20:34:48.991Z,7.60
2022-10-07T20:37:17.198Z,8.27
2022-10-07T20:40:03.166Z,7.65
2022-10-07T20:42:32.077Z,8.93
2022-10-07T20:44:59.322Z,7.60
2022-10-07T20:47:29.963Z,7.35
2022-10-07T20:49:59.842Z,6.90
2022-10-07T20:52:28.335Z,6.63
2022-10-07T20:54:55.313Z,5.80
2022-10-07T20:57:27.865Z,4.53
2022-10-07T20:59:55.161Z,3.72
2022-10-07T21:02:24.335Z,3.65
2022-10-07T21:04:51.347Z,3.58
2022-10-07T21:07:19.748Z,3.10
2022-10-07T21:09:47.522Z,3.08
2022-10-07T21:12:16.909Z,3.67
2022-10-07T21:14:44.352Z,2.90
2022-10-07T21:17:11.797Z,2.95
2022-10-07T21:19:38.621Z,2.67
2022-10-07T21:22:06.140Z,2.75
2022-10-07T21:24:34.463Z,3.30
2022-10-07T21:27:05.882Z,2.38
2022-10-07T21:29:37.512Z,2.85
2022-10-07T21:32:06.445Z,3.00
2022-10-07T21:34:33.190Z,2.92
2022-10-07T21:37:00.253Z,2.45
2022-10-07T21:39:27.155Z,2.58
2022-10-07T21:41:54.678Z,2.30
2022-10-07T21:44:21.608Z,2.25
2022-10-07T21:46:48.451Z,2.92
2022-10-07T21:49:15.826Z,2.97
2022-10-07T21:51:43.349Z,2.65
2022-10-07T21:54:14.436Z,2.95
2022-10-07T21:56:43.528Z,2.30
2022-10-07T21:59:10.391Z,3.08
2022-10-07T22:01:38.137Z,2.80
2022-10-07T22:04:05.158Z,2.25
2022-10-07T22:06:51.147Z,2.28
2022-10-07T22:09:21.124Z,2.65
2022-10-07T22:11:51.567Z,2.80
2022-10-07T22:14:21.405Z,2.83
2022-10-07T22:16:48.561Z,3.40
2022-10-07T22:19:17.522Z,3.10
2022-10-07T22:21:45.720Z,3.25
2022-10-07T22:24:12.748Z,2.97
2022-10-07T22:26:43.726Z,3.33
2022-10-07T22:29:10.933Z,2.92
2022-10-07T22:31:38.208Z,2.55
2022-10-07T22:34:06.500Z,3.13
2022-10-07T22:36:33.712Z,2.63
2022-10-07T22:39:00.731Z,2.92
2022-10-07T22:41:27.876Z,2.88
2022-10-07T22:43:55.079Z,3.75
2022-10-07T22:46:26.778Z,2.75
2022-10-07T22:48:58.168Z,3.15
2022-10-07T22:51:29.257Z,2.40
2022-10-07T22:53:57.078Z,2.10
2022-10-07T22:56:26.024Z,2.97
2022-10-07T22:58:56.760Z,2.50
2022-10-07T23:01:23.740Z,3.28
2022-10-07T23:03:52.705Z,2.72
2022-10-07T23:06:19.932Z,2.33
2022-10-07T23:08:48.161Z,2.33
2022-10-07T23:11:17.920Z,3.10
2022-10-07T23:13:45.968Z,2.17
2022-10-07T23:16:16.056Z,2.58
2022-10-07T23:18:44.934Z,3.13
2022-10-07T23:21:13.151Z,1.98
2022-10-07T23:23:42.528Z,2.65
2022-10-07T23:26:14.921Z,2.65
2022-10-07T23:28:42.940Z,2.75
2022-10-07T23:31:11.949Z,1.95
2022-10-07T23:33:38.859Z,2.72
2022-10-07T23:36:08.931Z,2.40
2022-10-07T23:38:40.099Z,2.92
2022-10-07T23:41:07.315Z,3.17
2022-10-07T23:43:34.689Z,2.50
2022-10-07T23:46:02.982Z,2.60
2022-10-07T23:48:34.623Z,2.50
2022-10-07T23:51:03.339Z,3.50
2022-10-07T23:53:31.377Z,3.00
2022-10-07T23:55:58.271Z,3.15
2022-10-07T23:58:26.759Z,3.40
